sensor_id;sensor_type;location;lat;lon;timestamp;pressure;altitude;pressure_sealevel;temperature;humidity
51876;BME280;34054;52.100;5.116;2022-07-23T00:00:30;101695.19;;;18.52;67.22
51876;BME280;34054;52.100;5.116;2022-07-23T00:01:01;101776.16;;;19.05;67.13
51876;BME280;34054;52.100;5.116;2022-07-23T00:01:34;101773.16;;;19.01;67.05
51876;BME280;34054;52.100;5.116;2022-07-23T00:02:06;101712.97;;;18.65;67.07
51876;BME280;34054;52.100;5.116;2022-07-23T00:02:38;101781.66;;;19.05;66.99
51876;BME280;34054;52.100;5.116;2022-07-23T00:03:10;101688.97;;;18.46;66.74
51876;BME280;34054;52.100;5.116;2022-07-23T00:03:42;101780.03;;;19.04;66.78
51876;BME280;34054;52.100;5.116;2022-07-23T00:04:13;101771.81;;;18.98;66.99
51876;BME280;34054;52.100;5.116;2022-07-23T00:04:46;101783.38;;;19.01;66.88
51876;BME280;34054;52.100;5.116;2022-07-23T00:05:17;101780.09;;;18.98;67.03
51876;BME280;34054;52.100;5.116;2022-07-23T00:05:49;101779.25;;;18.98;66.78
51876;BME280;34054;52.100;5.116;2022-07-23T00:06:22;101777.09;;;18.95;67.11
51876;BME280;34054;52.100;5.116;2022-07-23T00:06:54;101779.56;;;18.91;66.70
51876;BME280;34054;52.100;5.116;2022-07-23T00:07:25;101766.16;;;18.84;66.84
51876;BME280;34054;52.100;5.116;2022-07-23T00:07:57;101779.03;;;18.89;66.85
51876;BME280;34054;52.100;5.116;2022-07-23T00:08:29;101777.94;;;18.90;66.88
51876;BME280;34054;52.100;5.116;2022-07-23T00:09:01;101774.34;;;18.90;66.81
51876;BME280;34054;52.100;5.116;2022-07-23T00:09:33;101769.38;;;18.92;66.82
51876;BME280;34054;52.100;5.116;2022-07-23T00:10:07;101762.88;;;18.82;66.80
51876;BME280;34054;52.100;5.116;2022-07-23T00:10:41;101772.44;;;18.90;66.50
51876;BME280;34054;52.100;5.116;2022-07-23T00:11:12;101774.66;;;18.88;66.60
51876;BME280;34054;52.100;5.116;2022-07-23T00:11:45;101774.94;;;18.87;66.53
51876;BME280;34054;52.100;5.116;2022-07-23T00:12:17;101716.94;;;18.54;66.48
51876;BME280;34054;52.100;5.116;2022-07-23T00:12:48;101752.78;;;18.73;66.71
51876;BME280;34054;52.100;5.116;2022-07-23T00:13:21;101760.47;;;18.76;66.46
51876;BME280;34054;52.100;5.116;2022-07-23T00:13:52;101767.03;;;18.80;66.48
51876;BME280;34054;52.100;5.116;2022-07-23T00:14:25;101762.88;;;18.82;66.66
51876;BME280;34054;52.100;5.116;2022-07-23T00:14:59;101747.84;;;18.70;66.46
51876;BME280;34054;52.100;5.116;2022-07-23T00:15:31;101768.13;;;18.79;66.37
51876;BME280;34054;52.100;5.116;2022-07-23T00:16:03;101767.03;;;18.80;66.32
51876;BME280;34054;52.100;5.116;2022-07-23T00:16:36;101773.94;;;18.77;66.43
51876;BME280;34054;52.100;5.116;2022-07-23T00:17:08;101767.31;;;18.78;66.26
51876;BME280;34054;52.100;5.116;2022-07-23T00:17:39;101770.06;;;18.78;66.26
51876;BME280;34054;52.100;5.116;2022-07-23T00:18:12;101767.03;;;18.80;66.47
51876;BME280;34054;52.100;5.116;2022-07-23T00:18:43;101707.19;;;18.37;66.30
51876;BME280;34054;52.100;5.116;2022-07-23T00:19:15;101698.97;;;18.32;66.41
51876;BME280;34054;52.100;5.116;2022-07-23T00:19:47;101716.78;;;18.40;66.37
51876;BME280;34054;52.100;5.116;2022-07-23T00:20:19;101774.22;;;18.76;66.36
51876;BME280;34054;52.100;5.116;2022-07-23T00:20:51;101763.25;;;18.71;66.27
51876;BME280;34054;52.100;5.116;2022-07-23T00:21:24;101757.50;;;18.67;66.35
51876;BME280;34054;52.100;5.116;2022-07-23T00:21:55;101767.09;;;18.75;66.58
51876;BME280;34054;52.100;5.116;2022-07-23T00:22:27;101774.03;;;18.67;66.38
51876;BME280;34054;52.100;5.116;2022-07-23T00:23:00;101748.47;;;18.61;66.54
51876;BME280;34054;52.100;5.116;2022-07-23T00:23:32;101769.88;;;18.70;66.35
51876;BME280;34054;52.100;5.116;2022-07-23T00:24:04;101772.84;;;18.73;66.16
51876;BME280;34054;52.100;5.116;2022-07-23T00:24:37;101764.38;;;18.70;66.40
51876;BME280;34054;52.100;5.116;2022-07-23T00:25:10;101746.41;;;18.48;66.27
51876;BME280;34054;52.100;5.116;2022-07-23T00:25:41;101765.22;;;18.65;66.45
51876;BME280;34054;52.100;5.116;2022-07-23T00:26:13;101767.72;;;18.66;66.44
51876;BME280;34054;52.100;5.116;2022-07-23T00:26:45;101744.19;;;18.50;66.47
51876;BME280;34054;52.100;5.116;2022-07-23T00:27:17;101714.69;;;18.26;66.70
51876;BME280;34054;52.100;5.116;2022-07-23T00:27:48;101769.38;;;18.62;66.71
51876;BME280;34054;52.100;5.116;2022-07-23T00:28:21;101766.63;;;18.62;66.52
51876;BME280;34054;52.100;5.116;2022-07-23T00:28:53;101767.19;;;18.64;66.88
51876;BME280;34054;52.100;5.116;2022-07-23T00:29:25;101766.06;;;18.65;66.49
51876;BME280;34054;52.100;5.116;2022-07-23T00:29:57;101746.09;;;18.55;66.50
51876;BME280;34054;52.100;5.116;2022-07-23T00:30:29;101763.00;;;18.67;66.57
51876;BME280;34054;52.100;5.116;2022-07-23T00:31:03;101757.28;;;18.63;66.66
51876;BME280;34054;52.100;5.116;2022-07-23T00:31:34;101763.06;;;18.62;66.78
51876;BME280;34054;52.100;5.116;2022-07-23T00:32:06;101756.75;;;18.61;66.69
51876;BME280;34054;52.100;5.116;2022-07-23T00:32:46;101765.81;;;18.62;66.87
51876;BME280;34054;52.100;5.116;2022-07-23T00:33:18;101754.59;;;18.58;66.76
51876;BME280;34054;52.100;5.116;2022-07-23T00:33:50;101762.53;;;18.60;66.70
51876;BME280;34054;52.100;5.116;2022-07-23T00:34:24;101582.28;;;17.45;66.54
51876;BME280;34054;52.100;5.116;2022-07-23T00:34:55;101758.97;;;18.59;66.70
51876;BME280;34054;52.100;5.116;2022-07-23T00:35:28;101757.59;;;18.57;66.76
51876;BME280;34054;52.100;5.116;2022-07-23T00:36:02;101760.88;;;18.59;66.68
51876;BME280;34054;52.100;5.116;2022-07-23T00:36:34;101758.44;;;18.57;66.83
51876;BME280;34054;52.100;5.116;2022-07-23T00:37:06;101756.78;;;18.56;66.87
51876;BME280;34054;52.100;5.116;2022-07-23T00:37:38;101739.56;;;18.45;66.67
51876;BME280;34054;52.100;5.116;2022-07-23T00:38:10;101727.06;;;18.29;66.75
51876;BME280;34054;52.100;5.116;2022-07-23T00:38:42;101765.34;;;18.55;66.73
51876;BME280;34054;52.100;5.116;2022-07-23T00:39:15;101768.66;;;18.51;66.96
51876;BME280;34054;52.100;5.116;2022-07-23T00:39:46;101766.22;;;18.50;66.99
51876;BME280;34054;52.100;5.116;2022-07-23T00:40:19;101762.63;;;18.49;67.00
51876;BME280;34054;52.100;5.116;2022-07-23T00:40:53;101627.78;;;17.61;66.91
51876;BME280;34054;52.100;5.116;2022-07-23T00:41:24;101772.81;;;18.49;67.00
51876;BME280;34054;52.100;5.116;2022-07-23T00:41:56;101745.09;;;18.40;66.87
51876;BME280;34054;52.100;5.116;2022-07-23T00:42:30;101768.13;;;18.49;66.98
51876;BME280;34054;52.100;5.116;2022-07-23T00:43:02;101760.41;;;18.51;67.18
51876;BME280;34054;52.100;5.116;2022-07-23T00:43:34;101748.94;;;18.39;66.94
51876;BME280;34054;52.100;5.116;2022-07-23T00:44:18;101748.69;;;18.41;67.17
51876;BME280;34054;52.100;5.116;2022-07-23T00:44:51;101762.06;;;18.47;67.12
51876;BME280;34054;52.100;5.116;2022-07-23T00:45:23;101755.22;;;18.45;67.19
51876;BME280;34054;52.100;5.116;2022-07-23T00:45:55;101757.19;;;18.44;67.32
51876;BME280;34054;52.100;5.116;2022-07-23T00:46:27;101762.94;;;18.43;67.46
51876;BME280;34054;52.100;5.116;2022-07-23T00:46:58;101755.28;;;18.40;67.66
51876;BME280;34054;52.100;5.116;2022-07-23T00:47:31;101749.78;;;18.40;67.51
51876;BME280;34054;52.100;5.116;2022-07-23T00:48:03;101739.34;;;18.36;67.47
51876;BME280;34054;52.100;5.116;2022-07-23T00:48:35;101751.94;;;18.43;67.40
51876;BME280;34054;52.100;5.116;2022-07-23T00:49:08;101752.47;;;18.45;67.56
51876;BME280;34054;52.100;5.116;2022-07-23T00:49:40;101757.44;;;18.43;67.35
51876;BME280;34054;52.100;5.116;2022-07-23T00:50:11;101732.25;;;18.30;67.40
51876;BME280;34054;52.100;5.116;2022-07-23T00:50:43;101730.66;;;18.24;67.52
51876;BME280;34054;52.100;5.116;2022-07-23T00:51:16;101762.44;;;18.41;67.68
51876;BME280;34054;52.100;5.116;2022-07-23T00:51:49;101760.78;;;18.40;67.70
51876;BME280;34054;52.100;5.116;2022-07-23T00:52:21;101767.38;;;18.39;67.69
51876;BME280;34054;52.100;5.116;2022-07-23T00:52:54;101710.97;;;18.12;67.69
51876;BME280;34054;52.100;5.116;2022-07-23T00:53:26;101750.41;;;18.31;67.96
51876;BME280;34054;52.100;5.116;2022-07-23T00:53:59;101759.13;;;18.39;67.69
51876;BME280;34054;52.100;5.116;2022-07-23T00:54:31;101742.19;;;18.26;67.84
51876;BME280;34054;52.100;5.116;2022-07-23T00:55:04;101732.34;;;18.20;67.77
51876;BME280;34054;52.100;5.116;2022-07-23T00:55:38;101750.66;;;18.35;67.84
51876;BME280;34054;52.100;5.116;2022-07-23T00:56:11;101750.44;;;18.26;67.88
51876;BME280;34054;52.100;5.116;2022-07-23T00:56:44;101754.78;;;18.32;68.05
51876;BME280;34054;52.100;5.116;2022-07-23T00:57:17;101743.00;;;18.27;67.90
51876;BME280;34054;52.100;5.116;2022-07-23T00:57:50;101753.16;;;18.31;67.99
51876;BME280;34054;52.100;5.116;2022-07-23T00:58:24;101748.81;;;18.25;67.98
51876;BME280;34054;52.100;5.116;2022-07-23T00:58:56;101733.75;;;18.17;68.26
51876;BME280;34054;52.100;5.116;2022-07-23T00:59:29;101756.47;;;18.28;68.09
51876;BME280;34054;52.100;5.116;2022-07-23T01:00:01;101749.63;;;18.26;68.32
51876;BME280;34054;52.100;5.116;2022-07-23T01:00:34;101742.53;;;18.19;68.25
51876;BME280;34054;52.100;5.116;2022-07-23T01:01:06;101695.13;;;17.93;68.20
51876;BME280;34054;52.100;5.116;2022-07-23T01:01:39;101750.09;;;18.33;67.95
51876;BME280;34054;52.100;5.116;2022-07-23T01:02:11;101714.81;;;18.11;68.12
51876;BME280;34054;52.100;5.116;2022-07-23T01:02:44;101746.56;;;18.32;67.95
51876;BME280;34054;52.100;5.116;2022-07-23T01:03:16;101751.56;;;18.25;68.27
51876;BME280;34054;52.100;5.116;2022-07-23T01:03:48;101730.75;;;18.14;68.37
51876;BME280;34054;52.100;5.116;2022-07-23T01:04:20;101740.28;;;18.21;68.46
51876;BME280;34054;52.100;5.116;2022-07-23T01:04:52;101727.69;;;18.15;68.54
51876;BME280;34054;52.100;5.116;2022-07-23T01:05:24;101740.28;;;18.21;68.46
51876;BME280;34054;52.100;5.116;2022-07-23T01:05:57;101746.91;;;18.20;68.51
51876;BME280;34054;52.100;5.116;2022-07-23T01:06:30;101700.34;;;18.00;68.44
51876;BME280;34054;52.100;5.116;2022-07-23T01:07:06;101720.28;;;18.16;68.42
51876;BME280;34054;52.100;5.116;2022-07-23T01:07:39;101733.69;;;18.23;68.54
51876;BME280;34054;52.100;5.116;2022-07-23T01:08:11;101740.03;;;18.18;68.77
51876;BME280;34054;52.100;5.116;2022-07-23T01:08:43;101729.03;;;18.18;68.61
51876;BME280;34054;52.100;5.116;2022-07-23T01:09:18;101722.78;;;18.12;68.77
51876;BME280;34054;52.100;5.116;2022-07-23T01:09:50;101733.75;;;18.17;68.75
51876;BME280;34054;52.100;5.116;2022-07-23T01:10:23;101719.50;;;18.10;68.90
51876;BME280;34054;52.100;5.116;2022-07-23T01:11:03;101731.03;;;18.12;68.88
51876;BME280;34054;52.100;5.116;2022-07-23T01:11:37;101735.13;;;18.15;69.10
51876;BME280;34054;52.100;5.116;2022-07-23T01:12:09;101717.59;;;18.05;68.76
51876;BME280;34054;52.100;5.116;2022-07-23T01:12:41;101691.00;;;17.96;68.70
51876;BME280;34054;52.100;5.116;2022-07-23T01:13:12;101732.34;;;18.20;68.81
51876;BME280;34054;52.100;5.116;2022-07-23T01:13:45;101734.03;;;18.16;68.79
51876;BME280;34054;52.100;5.116;2022-07-23T01:14:18;101728.81;;;18.14;68.88
51876;BME280;34054;52.100;5.116;2022-07-23T01:14:53;101720.31;;;18.11;68.96
51876;BME280;34054;52.100;5.116;2022-07-23T01:15:27;101715.97;;;18.04;69.00
51876;BME280;34054;52.100;5.116;2022-07-23T01:16:00;101714.03;;;18.05;68.96
51876;BME280;34054;52.100;5.116;2022-07-23T01:16:32;101722.50;;;18.09;69.09
51876;BME280;34054;52.100;5.116;2022-07-23T01:17:04;101708.28;;;18.01;69.26
51876;BME280;34054;52.100;5.116;2022-07-23T01:17:36;101720.06;;;18.07;69.29
51876;BME280;34054;52.100;5.116;2022-07-23T01:18:09;101698.72;;;17.94;69.28
51876;BME280;34054;52.100;5.116;2022-07-23T01:18:40;101713.47;;;18.08;69.21
51876;BME280;34054;52.100;5.116;2022-07-23T01:19:13;101718.97;;;18.08;69.32
51876;BME280;34054;52.100;5.116;2022-07-23T01:19:46;101715.66;;;18.06;69.51
51876;BME280;34054;52.100;5.116;2022-07-23T01:20:17;101689.44;;;17.84;69.36
51876;BME280;34054;52.100;5.116;2022-07-23T01:20:49;101650.84;;;17.60;69.45
51876;BME280;34054;52.100;5.116;2022-07-23T01:21:22;101708.06;;;17.93;69.47
51876;BME280;34054;52.100;5.116;2022-07-23T01:21:54;101684.78;;;17.80;69.53
51876;BME280;34054;52.100;5.116;2022-07-23T01:22:30;101719.56;;;18.00;69.62
51876;BME280;34054;52.100;5.116;2022-07-23T01:23:02;101659.38;;;17.53;69.80
51876;BME280;34054;52.100;5.116;2022-07-23T01:23:34;101678.00;;;17.67;69.66
51876;BME280;34054;52.100;5.116;2022-07-23T01:24:06;101630.13;;;17.38;69.65
51876;BME280;34054;52.100;5.116;2022-07-23T01:24:40;101723.97;;;17.96;69.90
51876;BME280;34054;52.100;5.116;2022-07-23T01:25:11;101731.13;;;17.97;69.97
51876;BME280;34054;52.100;5.116;2022-07-23T01:25:48;101720.69;;;17.94;70.04
51876;BME280;34054;52.100;5.116;2022-07-23T01:26:21;101647.91;;;17.46;70.10
51876;BME280;34054;52.100;5.116;2022-07-23T01:26:52;101727.56;;;17.96;69.95
51876;BME280;34054;52.100;5.116;2022-07-23T01:27:24;101719.59;;;17.95;70.10
51876;BME280;34054;52.100;5.116;2022-07-23T01:27:57;101702.66;;;17.77;69.93
51876;BME280;34054;52.100;5.116;2022-07-23T01:28:28;101711.34;;;17.89;69.82
51876;BME280;34054;52.100;5.116;2022-07-23T01:29:00;101720.69;;;17.94;70.05
51876;BME280;34054;52.100;5.116;2022-07-23T01:29:32;101720.94;;;17.92;70.18
51876;BME280;34054;52.100;5.116;2022-07-23T01:30:05;101633.97;;;17.32;70.17
51876;BME280;34054;52.100;5.116;2022-07-23T01:30:37;101723.69;;;17.92;70.40
51876;BME280;34054;52.100;5.116;2022-07-23T01:31:10;101707.56;;;17.80;70.20
51876;BME280;34054;52.100;5.116;2022-07-23T01:31:42;101724.84;;;17.91;70.37
51876;BME280;34054;52.100;5.116;2022-07-23T01:32:14;101722.34;;;17.89;70.47
51876;BME280;34054;52.100;5.116;2022-07-23T01:32:47;101680.25;;;17.60;70.26
51876;BME280;34054;52.100;5.116;2022-07-23T01:33:18;101724.84;;;17.91;70.36
51876;BME280;34054;52.100;5.116;2022-07-23T01:33:50;101644.94;;;17.37;70.40
51876;BME280;34054;52.100;5.116;2022-07-23T01:34:22;101644.13;;;17.37;70.29
51876;BME280;34054;52.100;5.116;2022-07-23T01:34:54;101719.91;;;17.88;70.52
51876;BME280;34054;52.100;5.116;2022-07-23T01:35:25;101720.47;;;17.85;70.48
51876;BME280;34054;52.100;5.116;2022-07-23T01:35:58;101723.44;;;17.88;70.58
51876;BME280;34054;52.100;5.116;2022-07-23T01:36:30;101707.06;;;17.78;70.43
51876;BME280;34054;52.100;5.116;2022-07-23T01:37:01;101686.78;;;17.64;70.68
51876;BME280;34054;52.100;5.116;2022-07-23T01:37:34;101717.16;;;17.83;70.49
51876;BME280;34054;52.100;5.116;2022-07-23T01:38:07;101689.00;;;17.62;70.65
51876;BME280;34054;52.100;5.116;2022-07-23T01:38:39;101705.44;;;17.72;70.67
51876;BME280;34054;52.100;5.116;2022-07-23T01:39:10;101725.69;;;17.81;70.88
51876;BME280;34054;52.100;5.116;2022-07-23T01:39:43;101726.53;;;17.82;70.88
51876;BME280;34054;52.100;5.116;2022-07-23T01:40:14;101727.63;;;17.81;70.82
51876;BME280;34054;52.100;5.116;2022-07-23T01:40:46;101727.63;;;17.81;70.71
51876;BME280;34054;52.100;5.116;2022-07-23T01:41:19;101724.06;;;17.80;70.96
51876;BME280;34054;52.100;5.116;2022-07-23T01:41:51;101727.34;;;17.82;70.96
51876;BME280;34054;52.100;5.116;2022-07-23T01:42:23;101718.34;;;17.71;71.03
51876;BME280;34054;52.100;5.116;2022-07-23T01:42:55;101658.69;;;17.32;70.87
51876;BME280;34054;52.100;5.116;2022-07-23T01:43:27;101728.50;;;17.76;70.99
51876;BME280;34054;52.100;5.116;2022-07-23T01:43:59;101724.09;;;17.75;71.16
51876;BME280;34054;52.100;5.116;2022-07-23T01:44:31;101704.66;;;17.61;70.98
51876;BME280;34054;52.100;5.116;2022-07-23T01:45:04;101728.50;;;17.76;70.92
51876;BME280;34054;52.100;5.116;2022-07-23T01:45:36;101726.00;;;17.74;71.06
51876;BME280;34054;52.100;5.116;2022-07-23T01:46:09;101729.03;;;17.78;71.07
51876;BME280;34054;52.100;5.116;2022-07-23T01:46:41;101710.41;;;17.65;71.19
51876;BME280;34054;52.100;5.116;2022-07-23T01:47:13;101707.91;;;17.68;71.12
51876;BME280;34054;52.100;5.116;2022-07-23T01:47:46;101714.50;;;17.72;70.98
51876;BME280;34054;52.100;5.116;2022-07-23T01:48:18;101722.50;;;17.69;71.16
51876;BME280;34054;52.100;5.116;2022-07-23T01:48:49;101725.19;;;17.74;71.17
51876;BME280;34054;52.100;5.116;2022-07-23T01:49:22;101726.84;;;17.75;71.18
51876;BME280;34054;52.100;5.116;2022-07-23T01:49:54;101613.28;;;17.05;71.14
51876;BME280;34054;52.100;5.116;2022-07-23T01:50:25;101654.34;;;17.26;71.27
51876;BME280;34054;52.100;5.116;2022-07-23T01:50:57;101725.19;;;17.74;71.08
51876;BME280;34054;52.100;5.116;2022-07-23T01:51:29;101723.84;;;17.71;71.39
51876;BME280;34054;52.100;5.116;2022-07-23T01:52:01;101715.09;;;17.64;71.31
51876;BME280;34054;52.100;5.116;2022-07-23T01:52:34;101726.59;;;17.71;71.45
51876;BME280;34054;52.100;5.116;2022-07-23T01:53:06;101722.25;;;17.65;71.51
51876;BME280;34054;52.100;5.116;2022-07-23T01:53:38;101598.81;;;16.84;71.46
51876;BME280;34054;52.100;5.116;2022-07-23T01:54:09;101710.72;;;17.58;71.52
51876;BME280;34054;52.100;5.116;2022-07-23T01:54:41;101732.09;;;17.71;71.44
51876;BME280;34054;52.100;5.116;2022-07-23T01:55:13;101717.00;;;17.64;71.42
51876;BME280;34054;52.100;5.116;2022-07-23T01:55:45;101718.09;;;17.68;71.64
51876;BME280;34054;52.100;5.116;2022-07-23T01:56:17;101733.75;;;17.67;71.78
51876;BME280;34054;52.100;5.116;2022-07-23T01:56:51;101720.84;;;17.68;71.71
51876;BME280;34054;52.100;5.116;2022-07-23T01:57:23;101733.47;;;17.69;71.51
51876;BME280;34054;52.100;5.116;2022-07-23T01:57:55;101731.00;;;17.67;71.66
51876;BME280;34054;52.100;5.116;2022-07-23T01:58:27;101719.50;;;17.60;71.81
51876;BME280;34054;52.100;5.116;2022-07-23T01:58:59;101727.75;;;17.65;71.86
51876;BME280;34054;52.100;5.116;2022-07-23T01:59:30;101729.34;;;17.66;71.82
51876;BME280;34054;52.100;5.116;2022-07-23T02:00:03;101724.13;;;17.70;71.68
51876;BME280;34054;52.100;5.116;2022-07-23T02:00:36;101725.75;;;17.76;71.41
51876;BME280;34054;52.100;5.116;2022-07-23T02:01:08;101725.50;;;17.72;71.41
51876;BME280;34054;52.100;5.116;2022-07-23T02:01:39;101724.94;;;17.70;71.51
51876;BME280;34054;52.100;5.116;2022-07-23T02:02:11;101727.44;;;17.67;71.81
51876;BME280;34054;52.100;5.116;2022-07-23T02:02:44;101674.09;;;17.28;71.82
51876;BME280;34054;52.100;5.116;2022-07-23T02:03:15;101716.28;;;17.48;72.01
51876;BME280;34054;52.100;5.116;2022-07-23T02:03:46;101704.50;;;17.42;72.02
51876;BME280;34054;52.100;5.116;2022-07-23T02:04:20;101668.91;;;17.21;72.12
51876;BME280;34054;52.100;5.116;2022-07-23T02:04:52;101732.44;;;17.60;71.99
51876;BME280;34054;52.100;5.116;2022-07-23T02:05:24;101677.91;;;17.32;71.95
51876;BME280;34054;52.100;5.116;2022-07-23T02:05:55;101709.66;;;17.49;71.92
51876;BME280;34054;52.100;5.116;2022-07-23T02:06:28;101735.19;;;17.60;71.88
51876;BME280;34054;52.100;5.116;2022-07-23T02:06:59;101727.75;;;17.60;71.93
51876;BME280;34054;52.100;5.116;2022-07-23T02:07:32;101723.59;;;17.63;71.91
51876;BME280;34054;52.100;5.116;2022-07-23T02:08:05;101724.75;;;17.56;71.91
51876;BME280;34054;52.100;5.116;2022-07-23T02:08:37;101730.50;;;17.60;72.01
51876;BME280;34054;52.100;5.116;2022-07-23T02:09:10;101712.69;;;17.52;71.93
51876;BME280;34054;52.100;5.116;2022-07-23T02:09:41;101727.41;;;17.72;71.42
51876;BME280;34054;52.100;5.116;2022-07-23T02:10:13;101706.38;;;17.57;71.48
51876;BME280;34054;52.100;5.116;2022-07-23T02:10:45;101697.06;;;17.48;71.78
51876;BME280;34054;52.100;5.116;2022-07-23T02:11:17;101708.81;;;17.53;71.82
51876;BME280;34054;52.100;5.116;2022-07-23T02:11:49;101720.06;;;17.62;71.91
51876;BME280;34054;52.100;5.116;2022-07-23T02:12:21;101725.00;;;17.60;72.03
51876;BME280;34054;52.100;5.116;2022-07-23T02:12:53;101722.00;;;17.56;72.07
51876;BME280;34054;52.100;5.116;2022-07-23T02:13:25;101607.84;;;16.85;71.99
51876;BME280;34054;52.100;5.116;2022-07-23T02:13:57;101720.09;;;17.57;72.31
51876;BME280;34054;52.100;5.116;2022-07-23T02:14:29;101720.91;;;17.57;72.26
51876;BME280;34054;52.100;5.116;2022-07-23T02:15:00;101727.19;;;17.58;72.27
51876;BME280;34054;52.100;5.116;2022-07-23T02:15:32;101680.69;;;17.27;72.27
51876;BME280;34054;52.100;5.116;2022-07-23T02:16:05;101726.69;;;17.56;72.21
51876;BME280;34054;52.100;5.116;2022-07-23T02:16:37;101723.09;;;17.55;72.41
51876;BME280;34054;52.100;5.116;2022-07-23T02:17:09;101726.41;;;17.57;72.13
51876;BME280;34054;52.100;5.116;2022-07-23T02:17:41;101704.19;;;17.49;72.40
51876;BME280;34054;52.100;5.116;2022-07-23T02:19:00;101722.28;;;17.55;72.42
51876;BME280;34054;52.100;5.116;2022-07-23T02:19:32;101719.53;;;17.55;72.30
51876;BME280;34054;52.100;5.116;2022-07-23T02:20:05;101718.44;;;17.56;72.39
51876;BME280;34054;52.100;5.116;2022-07-23T02:20:37;101723.13;;;17.50;72.28
51876;BME280;34054;52.100;5.116;2022-07-23T02:21:10;101723.69;;;17.52;72.50
51876;BME280;34054;52.100;5.116;2022-07-23T02:21:42;101713.81;;;17.46;72.24
51876;BME280;34054;52.100;5.116;2022-07-23T02:22:13;101723.69;;;17.52;72.42
51876;BME280;34054;52.100;5.116;2022-07-23T02:22:47;101725.59;;;17.52;72.50
51876;BME280;34054;52.100;5.116;2022-07-23T02:23:19;101722.31;;;17.50;72.66
51876;BME280;34054;52.100;5.116;2022-07-23T02:23:51;101716.28;;;17.48;72.76
51876;BME280;34054;52.100;5.116;2022-07-23T02:24:23;101720.94;;;17.47;72.61
51876;BME280;34054;52.100;5.116;2022-07-23T02:24:54;101723.69;;;17.52;72.56
51876;BME280;34054;52.100;5.116;2022-07-23T02:25:26;101714.34;;;17.48;72.47
51876;BME280;34054;52.100;5.116;2022-07-23T02:25:59;101717.66;;;17.50;72.62
51876;BME280;34054;52.100;5.116;2022-07-23T02:26:30;101721.19;;;17.51;72.61
51876;BME280;34054;52.100;5.116;2022-07-23T02:27:05;101722.31;;;17.50;72.60
51876;BME280;34054;52.100;5.116;2022-07-23T02:27:37;101722.88;;;17.47;72.73
51876;BME280;34054;52.100;5.116;2022-07-23T02:28:09;101726.16;;;17.49;72.79
51876;BME280;34054;52.100;5.116;2022-07-23T02:28:40;101722.59;;;17.48;72.88
51876;BME280;34054;52.100;5.116;2022-07-23T02:29:12;101720.41;;;17.50;72.53
51876;BME280;34054;52.100;5.116;2022-07-23T02:29:45;101725.88;;;17.50;72.61
51876;BME280;34054;52.100;5.116;2022-07-23T02:30:16;101721.19;;;17.51;72.69
51876;BME280;34054;52.100;5.116;2022-07-23T02:30:48;101723.94;;;17.51;72.81
51876;BME280;34054;52.100;5.116;2022-07-23T02:31:20;101711.91;;;17.47;72.86
51876;BME280;34054;52.100;5.116;2022-07-23T02:31:51;101718.50;;;17.46;72.78
51876;BME280;34054;52.100;5.116;2022-07-23T02:32:23;101714.06;;;17.50;72.82
51876;BME280;34054;52.100;5.116;2022-07-23T02:32:56;101708.88;;;17.48;72.71
51876;BME280;34054;52.100;5.116;2022-07-23T02:33:27;101712.72;;;17.47;72.90
51876;BME280;34054;52.100;5.116;2022-07-23T02:34:00;101714.66;;;17.47;72.90
51876;BME280;34054;52.100;5.116;2022-07-23T02:34:32;101716.28;;;17.48;72.87
51876;BME280;34054;52.100;5.116;2022-07-23T02:35:04;101707.25;;;17.42;72.92
51876;BME280;34054;52.100;5.116;2022-07-23T02:35:37;101715.75;;;17.46;72.94
51876;BME280;34054;52.100;5.116;2022-07-23T02:36:09;101716.03;;;17.44;73.00
51876;BME280;34054;52.100;5.116;2022-07-23T02:36:40;101722.34;;;17.45;72.87
51876;BME280;34054;52.100;5.116;2022-07-23T02:37:12;101715.19;;;17.43;72.94
51876;BME280;34054;52.100;5.116;2022-07-23T02:37:45;101714.66;;;17.41;72.86
51876;BME280;34054;52.100;5.116;2022-07-23T02:38:18;101697.66;;;17.34;72.85
51876;BME280;34054;52.100;5.116;2022-07-23T02:38:49;101716.59;;;17.41;72.70
51876;BME280;34054;52.100;5.116;2022-07-23T02:39:22;101714.41;;;17.43;73.02
51876;BME280;34054;52.100;5.116;2022-07-23T02:39:53;101707.81;;;17.39;72.95
51876;BME280;34054;52.100;5.116;2022-07-23T02:40:25;101713.84;;;17.41;73.05
51876;BME280;34054;52.100;5.116;2022-07-23T02:40:57;101720.16;;;17.41;73.06
51876;BME280;34054;52.100;5.116;2022-07-23T02:41:29;101708.09;;;17.37;73.11
51876;BME280;34054;52.100;5.116;2022-07-23T02:42:01;101713.84;;;17.41;73.08
51876;BME280;34054;52.100;5.116;2022-07-23T02:42:33;101714.94;;;17.40;73.00
51876;BME280;34054;52.100;5.116;2022-07-23T02:43:05;101709.16;;;17.41;73.09
51876;BME280;34054;52.100;5.116;2022-07-23T02:43:36;101718.50;;;17.40;73.19
51876;BME280;34054;52.100;5.116;2022-07-23T02:44:09;101707.81;;;17.39;73.09
51876;BME280;34054;52.100;5.116;2022-07-23T02:44:40;101715.75;;;17.40;73.13
51876;BME280;34054;52.100;5.116;2022-07-23T02:45:12;101721.81;;;17.37;73.18
51876;BME280;34054;52.100;5.116;2022-07-23T02:45:45;101720.19;;;17.36;73.18
51876;BME280;34054;52.100;5.116;2022-07-23T02:46:16;101706.50;;;17.31;73.22
51876;BME280;34054;52.100;5.116;2022-07-23T02:46:48;101719.09;;;17.37;73.19
51876;BME280;34054;52.100;5.116;2022-07-23T02:47:19;101720.19;;;17.36;73.22
51876;BME280;34054;52.100;5.116;2022-07-23T02:47:52;101729.50;;;17.35;73.32
51876;BME280;34054;52.100;5.116;2022-07-23T02:48:24;101725.66;;;17.36;73.24
51876;BME280;34054;52.100;5.116;2022-07-23T02:48:56;101717.47;;;17.31;73.30
51876;BME280;34054;52.100;5.116;2022-07-23T02:49:28;101729.50;;;17.35;73.28
51876;BME280;34054;52.100;5.116;2022-07-23T02:50:00;101726.22;;;17.33;73.32